Sautee Nacoochee, Georgia
Current Conditions -  °F | °C
As of 7:55 AM on Monday 20 Oct 2014 (Local Time) from KTOC Reporting Station
Clear Clear  
Wind Chill: 46°   Ceiling: Unl
Heat Index: 46°   Visibility: 10mi
Dew Point: 45°   Wind: 3mph
Humidity: 97%   Direction: 360°N
Pressure: 30.12"   Gusts: NA
Location:  34.72°N, 83.73°W
Report Text: KTOC 201155Z AUTO 36003KT 10SM CLR 08/07 A3012 RMK AO2 T00770072 10090 20067
Loading
Personal Weather Stations






























Interactive Weather Map
Tropical Storm Tracking
New forecast layout! Learn more

10-Day Weather Forecast

Advertisements
Track Severe Weather on mobile